createdAt,value
2023-04-15T00:03:11.816Z,13.19
2023-04-15T00:08:15.522Z,13.09
2023-04-15T00:13:18.308Z,13.89
2023-04-15T00:18:21.049Z,13.37
2023-04-15T00:23:23.808Z,13.02
2023-04-15T00:28:27.678Z,13.88
2023-04-15T00:33:30.435Z,13.48
2023-04-15T00:38:33.486Z,12.73
2023-04-15T00:43:36.665Z,13.73
2023-04-15T00:48:39.876Z,13.33
2023-04-15T00:53:43.832Z,12.88
2023-04-15T00:58:46.590Z,13.67
2023-04-15T01:03:51.921Z,13.78
2023-04-15T01:08:55.980Z,12.74
2023-04-15T01:13:59.219Z,13.47
2023-04-15T01:19:02.447Z,13.85
2023-04-15T01:24:11.320Z,13.68
2023-04-15T01:29:14.200Z,12.65
2023-04-15T01:34:17.083Z,13.21
2023-04-15T01:39:19.860Z,13.86
2023-04-15T01:44:22.793Z,13.24
2023-04-15T01:49:25.459Z,12.87
2023-04-15T01:54:28.167Z,13.70
2023-04-15T01:59:31.626Z,13.77
2023-04-15T02:04:34.368Z,12.80
2023-04-15T02:09:37.033Z,13.49
2023-04-15T02:14:39.821Z,14.16
2023-04-15T02:19:43.240Z,13.05
2023-04-15T02:24:47.235Z,13.14
2023-04-15T02:29:51.372Z,13.94
2023-04-15T02:34:54.174Z,13.07
2023-04-15T02:39:57.387Z,13.21
2023-04-15T02:45:00.184Z,14.00
2023-04-15T02:50:09.581Z,13.02
2023-04-15T02:55:12.883Z,13.41
2023-04-15T03:00:16.374Z,13.97
2023-04-15T03:05:19.141Z,13.12
2023-04-15T03:10:22.312Z,13.20
2023-04-15T03:15:25.156Z,13.94
2023-04-15T03:20:28.830Z,12.91
2023-04-15T03:25:31.601Z,12.97
2023-04-15T03:30:34.358Z,13.77
2023-04-15T03:35:37.107Z,13.34
2023-04-15T03:40:43.421Z,12.86
2023-04-15T03:45:46.283Z,13.44
2023-04-15T03:50:49.211Z,13.75
2023-04-15T03:55:52.412Z,13.58
2023-04-15T04:00:55.623Z,12.62
2023-04-15T04:05:58.425Z,13.36
2023-04-15T04:11:01.613Z,13.56
2023-04-15T04:16:05.173Z,12.69
2023-04-15T04:21:08.584Z,13.26
2023-04-15T04:26:11.471Z,13.83
2023-04-15T04:31:14.382Z,13.68
2023-04-15T04:36:17.093Z,12.67
2023-04-15T04:41:19.753Z,13.08
2023-04-15T04:46:24.028Z,13.73
2023-04-15T04:51:26.864Z,13.31
2023-04-15T04:56:29.617Z,13.05
2023-04-15T05:01:32.476Z,14.06
2023-04-15T05:06:36.819Z,13.11
2023-04-15T05:11:39.532Z,13.33
2023-04-15T05:16:42.397Z,13.88
2023-04-15T05:21:45.463Z,12.92
2023-04-15T05:26:48.757Z,13.84
2023-04-15T05:31:52.017Z,13.94
2023-04-15T05:36:54.793Z,12.99
2023-04-15T05:41:57.804Z,13.37
2023-04-15T05:47:01.013Z,14.58
2023-04-15T05:52:04.032Z,13.98
2023-04-15T05:57:07.642Z,13.02
2023-04-15T06:02:10.790Z,13.94
2023-04-15T06:07:13.754Z,13.49
2023-04-15T06:12:17.126Z,13.20
2023-04-15T06:17:19.822Z,14.02
2023-04-15T06:22:23.803Z,13.14
2023-04-15T06:27:26.489Z,13.36
2023-04-15T06:32:29.525Z,13.66
2023-04-15T06:37:32.852Z,12.83
2023-04-15T06:42:36.841Z,13.54
2023-04-15T06:47:39.700Z,13.12
2023-04-15T06:52:42.552Z,12.90
2023-04-15T06:57:45.561Z,13.60
2023-04-15T07:02:48.753Z,12.80
2023-04-15T07:07:51.576Z,13.38
2023-04-15T07:12:54.371Z,13.47
2023-04-15T07:17:57.218Z,12.75
2023-04-15T07:23:00.093Z,13.56
2023-04-15T07:28:03.046Z,13.06
2023-04-15T07:33:05.795Z,12.99
2023-04-15T07:38:08.542Z,13.61
2023-04-15T07:43:11.217Z,12.72
2023-04-15T07:48:14.011Z,13.49
2023-04-15T07:53:16.949Z,13.43
2023-04-15T07:58:19.689Z,12.70
2023-04-15T08:03:24.132Z,13.66
2023-04-15T08:08:27.364Z,13.44
2023-04-15T08:13:30.160Z,12.85
2023-04-15T08:18:33.257Z,13.92
2023-04-15T08:23:36.322Z,13.53
2023-04-15T08:28:40.805Z,12.86
2023-04-15T08:33:43.975Z,13.86
2023-04-15T08:38:47.408Z,13.49
2023-04-15T08:44:09.131Z,12.96
2023-04-15T08:49:14.927Z,13.90
2023-04-15T08:54:19.164Z,14.13
2023-04-15T08:59:22.276Z,13.11
2023-04-15T09:04:25.012Z,13.52
2023-04-15T09:09:28.037Z,13.76
2023-04-15T09:14:32.757Z,13.09
2023-04-15T09:19:35.557Z,13.89
2023-04-15T09:24:41.129Z,13.60
2023-04-15T09:29:43.819Z,13.36
2023-04-15T09:34:48.278Z,14.16
2023-04-15T09:39:53.763Z,13.29
2023-04-15T09:44:56.824Z,13.72
2023-04-15T09:50:01.820Z,14.04
2023-04-15T09:55:06.970Z,13.27
2023-04-15T10:00:11.471Z,14.07
2023-04-15T10:05:18.020Z,13.77
2023-04-15T10:10:21.578Z,13.21
2023-04-15T10:15:26.144Z,14.25
2023-04-15T10:20:30.298Z,13.56
2023-04-15T10:25:33.707Z,13.43
2023-04-15T10:30:37.244Z,14.21
2023-04-15T10:35:40.885Z,13.88
2023-04-15T10:40:45.489Z,13.46
2023-04-15T10:45:48.787Z,14.47
2023-04-15T10:50:58.458Z,13.88
2023-04-15T10:56:01.244Z,13.47
2023-04-15T11:01:04.586Z,14.17
2023-04-15T11:06:07.673Z,13.78
2023-04-15T11:11:10.468Z,13.67
2023-04-15T11:16:13.638Z,14.60
2023-04-15T11:21:16.605Z,13.57
2023-04-15T11:26:19.357Z,13.91
2023-04-15T11:31:24.160Z,14.42
2023-04-15T11:36:28.940Z,13.48
2023-04-15T11:41:31.884Z,14.30
2023-04-15T11:46:34.584Z,14.01
2023-04-15T11:51:38.014Z,13.80
2023-04-15T11:56:40.835Z,14.68
2023-04-15T12:01:46.319Z,13.79
2023-04-15T12:06:49.502Z,14.16
2023-04-15T12:11:53.958Z,14.91
2023-04-15T12:17:05.433Z,13.92
2023-04-15T12:22:17.843Z,14.35
2023-04-15T12:27:21.317Z,15.15
2023-04-15T12:32:24.051Z,14.43
2023-04-15T12:37:26.876Z,14.89
2023-04-15T12:42:29.574Z,15.35
2023-04-15T12:47:32.357Z,14.29
2023-04-15T12:52:35.371Z,14.58
2023-04-15T12:57:38.085Z,14.74
2023-04-15T13:02:40.957Z,14.99
2023-04-15T13:07:43.957Z,15.21
2023-04-15T13:12:48.120Z,14.27
2023-04-15T13:17:51.254Z,14.53
2023-04-15T13:22:54.451Z,15.07
2023-04-15T13:27:57.776Z,15.35
2023-04-15T13:33:00.899Z,15.02
2023-04-15T13:38:03.805Z,14.23
2023-04-15T13:43:06.576Z,15.20
2023-04-15T13:48:09.887Z,15.67
2023-04-15T13:53:13.137Z,14.49
2023-04-15T13:58:16.445Z,14.60
2023-04-15T14:03:19.330Z,15.12
2023-04-15T14:08:22.927Z,15.07
2023-04-15T14:13:25.741Z,14.83
2023-04-15T14:18:30.004Z,15.11
2023-04-15T14:23:32.992Z,15.08
2023-04-15T14:28:35.860Z,15.06
2023-04-15T14:33:38.583Z,15.24
2023-04-15T14:38:41.331Z,15.51
2023-04-15T14:43:44.194Z,15.12
2023-04-15T14:48:47.074Z,14.28
2023-04-15T14:53:49.790Z,14.76
2023-04-15T14:58:54.160Z,14.98
2023-04-15T15:03:56.946Z,15.21
2023-04-15T15:09:01.621Z,14.83
2023-04-15T15:14:04.696Z,14.69
2023-04-15T15:19:07.617Z,14.96
2023-04-15T15:24:10.903Z,15.12
2023-04-15T15:29:13.696Z,14.77
2023-04-15T15:34:17.148Z,14.84
2023-04-15T15:39:19.937Z,14.14
2023-04-15T15:44:22.724Z,13.87
2023-04-15T15:49:26.144Z,14.11
2023-04-15T15:54:29.289Z,14.23
2023-04-15T15:59:33.779Z,14.53
2023-04-15T16:04:37.342Z,14.68
2023-04-15T16:09:41.159Z,14.75
2023-04-15T16:14:43.938Z,14.93
2023-04-15T16:19:58.723Z,14.91
2023-04-15T16:25:03.889Z,14.50
2023-04-15T16:30:07.634Z,13.75
2023-04-15T16:35:11.763Z,13.75
2023-04-15T16:40:15.211Z,13.82
2023-04-15T16:45:18.547Z,13.67
2023-04-15T16:50:21.268Z,13.82
2023-04-15T16:55:24.619Z,13.52
2023-04-15T17:00:27.453Z,13.48
2023-04-15T17:05:33.501Z,13.47
2023-04-15T17:10:36.466Z,13.32
2023-04-15T17:15:40.781Z,13.37
2023-04-15T17:20:43.710Z,13.26
2023-04-15T17:25:46.508Z,13.16
2023-04-15T17:30:49.354Z,13.07
2023-04-15T17:35:52.238Z,12.98
2023-04-15T17:40:55.425Z,13.19
2023-04-15T17:45:58.799Z,13.42
2023-04-15T17:51:01.948Z,13.42
2023-04-15T17:56:04.833Z,13.23
2023-04-15T18:01:07.780Z,12.84
2023-04-15T18:06:11.906Z,12.72
2023-04-15T18:11:14.669Z,12.56
2023-04-15T18:16:17.629Z,12.56
2023-04-15T18:21:20.820Z,12.52
2023-04-15T18:26:23.649Z,12.54
2023-04-15T18:31:26.444Z,12.46
2023-04-15T18:36:29.761Z,12.13
2023-04-15T18:41:32.541Z,11.92
2023-04-15T18:46:35.539Z,11.85
2023-04-15T18:51:38.214Z,11.78
2023-04-15T18:56:41.640Z,11.90
2023-04-15T19:01:44.341Z,11.78
2023-04-15T19:06:47.892Z,12.29
2023-04-15T19:11:50.785Z,12.44
2023-04-15T19:16:53.558Z,12.42
2023-04-15T19:21:56.357Z,12.49
2023-04-15T19:26:59.190Z,12.43
2023-04-15T19:32:02.201Z,12.24
2023-04-15T19:37:04.964Z,12.12
2023-04-15T19:42:07.790Z,12.19
2023-04-15T19:47:11.515Z,12.30
2023-04-15T19:52:14.328Z,12.38
2023-04-15T19:57:17.120Z,12.43
2023-04-15T20:02:20.014Z,12.58
2023-04-15T20:07:22.869Z,12.46
2023-04-15T20:12:50.271Z,12.64
2023-04-15T20:17:49.790Z,12.81
2023-04-15T20:22:53.166Z,12.67
2023-04-15T20:27:57.554Z,12.81
2023-04-15T20:33:01.368Z,13.05
2023-04-15T20:38:04.678Z,13.34
2023-04-15T20:43:07.917Z,13.65
2023-04-15T20:48:11.003Z,13.43
2023-04-15T20:53:13.751Z,13.17
2023-04-15T20:58:16.538Z,13.17
2023-04-15T21:03:19.552Z,13.03
2023-04-15T21:08:29.171Z,12.94
2023-04-15T21:13:32.025Z,12.71
2023-04-15T21:18:34.861Z,12.62
2023-04-15T21:23:37.620Z,12.83
2023-04-15T21:28:40.746Z,12.93
2023-04-15T21:33:43.471Z,12.54
2023-04-15T21:38:46.233Z,12.97
2023-04-15T21:43:49.060Z,12.98
2023-04-15T21:48:53.346Z,13.03
2023-04-15T21:53:56.177Z,12.87
2023-04-15T21:58:59.024Z,12.71
2023-04-15T22:04:02.028Z,12.80
2023-04-15T22:09:04.911Z,12.85
2023-04-15T22:14:07.788Z,12.71
2023-04-15T22:19:10.810Z,12.40
2023-04-15T22:24:32.237Z,12.49
2023-04-15T22:29:36.502Z,12.56
2023-04-15T22:34:39.370Z,12.53
2023-04-15T22:39:42.169Z,12.57
2023-04-15T22:44:45.583Z,12.66
2023-04-15T22:49:48.289Z,12.53
2023-04-15T22:54:51.191Z,12.68
2023-04-15T22:59:54.298Z,12.80
2023-04-15T23:04:57.846Z,13.00
2023-04-15T23:10:01.322Z,12.82
2023-04-15T23:15:04.523Z,12.84
2023-04-15T23:20:08.165Z,12.86
2023-04-15T23:25:11.570Z,12.97
2023-04-15T23:30:15.034Z,12.61
2023-04-15T23:35:17.800Z,12.73
2023-04-15T23:40:20.816Z,12.62
2023-04-15T23:45:23.673Z,12.65
2023-04-15T23:50:28.480Z,12.84
2023-04-15T23:55:31.466Z,12.71
